sensor_id;sensor_type;location;lat;lon;timestamp;P1;durP1;ratioP1;P2;durP2;ratioP2
32327;SDS011;18806;51.558;5.100;2022-07-29T03:05:57;0.65;;;0.60;;
32327;SDS011;18806;51.558;5.100;2022-07-29T03:08:25;5.43;;;1.80;;
32327;SDS011;18806;51.558;5.100;2022-07-29T03:10:53;4.45;;;1.60;;
32327;SDS011;18806;51.558;5.100;2022-07-29T03:13:21;5.07;;;1.97;;
32327;SDS011;18806;51.558;5.100;2022-07-29T03:15:49;5.10;;;1.80;;
32327;SDS011;18806;51.558;5.100;2022-07-29T03:18:17;3.20;;;1.63;;
32327;SDS011;18806;51.558;5.100;2022-07-29T03:20:44;4.20;;;1.80;;
32327;SDS011;18806;51.558;5.100;2022-07-29T03:23:12;4.97;;;2.03;;
32327;SDS011;18806;51.558;5.100;2022-07-29T03:25:45;4.28;;;1.88;;
32327;SDS011;18806;51.558;5.100;2022-07-29T03:28:15;3.50;;;1.80;;
32327;SDS011;18806;51.558;5.100;2022-07-29T03:30:44;5.32;;;2.13;;
32327;SDS011;18806;51.558;5.100;2022-07-29T03:33:11;4.97;;;1.90;;
32327;SDS011;18806;51.558;5.100;2022-07-29T03:35:39;5.60;;;2.20;;
32327;SDS011;18806;51.558;5.100;2022-07-29T03:38:06;4.03;;;2.05;;
32327;SDS011;18806;51.558;5.100;2022-07-29T03:43:09;3.50;;;1.77;;
32327;SDS011;18806;51.558;5.100;2022-07-29T03:45:37;5.10;;;1.90;;
32327;SDS011;18806;51.558;5.100;2022-07-29T03:48:07;5.55;;;1.90;;
32327;SDS011;18806;51.558;5.100;2022-07-29T03:50:35;4.63;;;2.10;;
32327;SDS011;18806;51.558;5.100;2022-07-29T03:53:07;6.72;;;2.30;;
32327;SDS011;18806;51.558;5.100;2022-07-29T03:55:41;5.30;;;2.50;;
32327;SDS011;18806;51.558;5.100;2022-07-29T03:58:10;5.32;;;2.35;;
32327;SDS011;18806;51.558;5.100;2022-07-29T04:00:38;4.83;;;2.13;;
32327;SDS011;18806;51.558;5.100;2022-07-29T04:03:08;5.17;;;2.37;;
32327;SDS011;18806;51.558;5.100;2022-07-29T04:05:37;6.43;;;2.15;;
32327;SDS011;18806;51.558;5.100;2022-07-29T04:08:04;4.40;;;2.20;;
32327;SDS011;18806;51.558;5.100;2022-07-29T04:10:31;5.43;;;1.90;;
32327;SDS011;18806;51.558;5.100;2022-07-29T04:13:00;4.47;;;2.20;;
32327;SDS011;18806;51.558;5.100;2022-07-29T04:15:29;4.15;;;2.20;;
32327;SDS011;18806;51.558;5.100;2022-07-29T04:17:57;4.88;;;2.05;;
32327;SDS011;18806;51.558;5.100;2022-07-29T04:20:27;5.40;;;2.10;;
32327;SDS011;18806;51.558;5.100;2022-07-29T04:22:56;4.55;;;2.50;;
32327;SDS011;18806;51.558;5.100;2022-07-29T04:25:23;5.15;;;2.13;;
32327;SDS011;18806;51.558;5.100;2022-07-29T04:27:50;6.47;;;2.40;;
32327;SDS011;18806;51.558;5.100;2022-07-29T04:30:26;7.72;;;2.33;;
32327;SDS011;18806;51.558;5.100;2022-07-29T04:32:53;4.90;;;2.30;;
32327;SDS011;18806;51.558;5.100;2022-07-29T04:35:21;5.50;;;2.20;;
32327;SDS011;18806;51.558;5.100;2022-07-29T04:37:50;5.63;;;2.35;;
32327;SDS011;18806;51.558;5.100;2022-07-29T04:40:17;5.47;;;2.30;;
32327;SDS011;18806;51.558;5.100;2022-07-29T04:42:44;4.75;;;2.20;;
32327;SDS011;18806;51.558;5.100;2022-07-29T04:45:14;7.75;;;2.60;;
32327;SDS011;18806;51.558;5.100;2022-07-29T04:47:47;4.93;;;2.28;;
32327;SDS011;18806;51.558;5.100;2022-07-29T04:50:14;4.85;;;2.30;;
32327;SDS011;18806;51.558;5.100;2022-07-29T04:52:45;6.07;;;2.40;;
32327;SDS011;18806;51.558;5.100;2022-07-29T04:55:13;4.57;;;2.20;;
32327;SDS011;18806;51.558;5.100;2022-07-29T04:57:41;8.90;;;2.60;;
32327;SDS011;18806;51.558;5.100;2022-07-29T05:00:08;6.38;;;2.33;;
32327;SDS011;18806;51.558;5.100;2022-07-29T05:02:35;8.77;;;2.60;;
32327;SDS011;18806;51.558;5.100;2022-07-29T05:05:05;5.45;;;2.40;;
32327;SDS011;18806;51.558;5.100;2022-07-29T05:07:32;5.97;;;2.72;;
32327;SDS011;18806;51.558;5.100;2022-07-29T05:10:00;6.40;;;2.72;;
32327;SDS011;18806;51.558;5.100;2022-07-29T05:12:27;4.13;;;2.57;;
32327;SDS011;18806;51.558;5.100;2022-07-29T05:14:56;7.57;;;2.80;;
32327;SDS011;18806;51.558;5.100;2022-07-29T05:17:24;5.13;;;2.60;;
32327;SDS011;18806;51.558;5.100;2022-07-29T05:19:51;6.53;;;2.70;;
32327;SDS011;18806;51.558;5.100;2022-07-29T05:22:21;5.90;;;2.60;;
32327;SDS011;18806;51.558;5.100;2022-07-29T05:24:49;7.53;;;2.88;;
32327;SDS011;18806;51.558;5.100;2022-07-29T05:27:16;11.70;;;3.40;;
32327;SDS011;18806;51.558;5.100;2022-07-29T05:29:48;8.10;;;3.15;;
32327;SDS011;18806;51.558;5.100;2022-07-29T05:32:15;7.32;;;2.83;;
32327;SDS011;18806;51.558;5.100;2022-07-29T05:34:42;6.50;;;2.80;;
32327;SDS011;18806;51.558;5.100;2022-07-29T05:37:18;5.72;;;2.65;;
32327;SDS011;18806;51.558;5.100;2022-07-29T05:39:45;7.15;;;2.88;;
32327;SDS011;18806;51.558;5.100;2022-07-29T05:42:22;7.10;;;2.90;;
32327;SDS011;18806;51.558;5.100;2022-07-29T05:44:49;11.82;;;3.90;;
32327;SDS011;18806;51.558;5.100;2022-07-29T05:47:19;5.63;;;2.90;;
32327;SDS011;18806;51.558;5.100;2022-07-29T05:49:46;7.43;;;3.22;;
32327;SDS011;18806;51.558;5.100;2022-07-29T05:52:13;5.90;;;2.63;;
32327;SDS011;18806;51.558;5.100;2022-07-29T05:54:40;6.37;;;3.07;;
32327;SDS011;18806;51.558;5.100;2022-07-29T05:57:20;7.38;;;3.00;;
32327;SDS011;18806;51.558;5.100;2022-07-29T05:59:48;5.80;;;2.80;;
32327;SDS011;18806;51.558;5.100;2022-07-29T06:02:16;5.07;;;3.00;;
32327;SDS011;18806;51.558;5.100;2022-07-29T06:04:44;6.75;;;3.05;;
32327;SDS011;18806;51.558;5.100;2022-07-29T06:07:11;6.60;;;3.05;;
32327;SDS011;18806;51.558;5.100;2022-07-29T06:09:38;11.68;;;3.47;;
32327;SDS011;18806;51.558;5.100;2022-07-29T06:12:05;12.15;;;3.97;;
32327;SDS011;18806;51.558;5.100;2022-07-29T06:14:33;10.32;;;3.75;;
32327;SDS011;18806;51.558;5.100;2022-07-29T06:17:05;8.80;;;3.40;;
32327;SDS011;18806;51.558;5.100;2022-07-29T06:19:35;11.93;;;3.78;;
32327;SDS011;18806;51.558;5.100;2022-07-29T06:22:03;8.20;;;3.58;;
32327;SDS011;18806;51.558;5.100;2022-07-29T06:24:30;7.85;;;3.40;;
32327;SDS011;18806;51.558;5.100;2022-07-29T06:27:00;6.72;;;3.40;;
32327;SDS011;18806;51.558;5.100;2022-07-29T06:29:27;6.07;;;3.30;;
32327;SDS011;18806;51.558;5.100;2022-07-29T06:31:57;6.88;;;3.38;;
32327;SDS011;18806;51.558;5.100;2022-07-29T06:34:24;8.25;;;3.70;;
32327;SDS011;18806;51.558;5.100;2022-07-29T06:36:56;6.65;;;3.00;;
32327;SDS011;18806;51.558;5.100;2022-07-29T06:39:25;6.55;;;3.00;;
32327;SDS011;18806;51.558;5.100;2022-07-29T06:41:53;6.15;;;3.33;;
32327;SDS011;18806;51.558;5.100;2022-07-29T06:44:20;5.32;;;3.03;;
32327;SDS011;18806;51.558;5.100;2022-07-29T06:46:48;7.63;;;3.20;;
32327;SDS011;18806;51.558;5.100;2022-07-29T06:49:19;7.22;;;3.33;;
32327;SDS011;18806;51.558;5.100;2022-07-29T06:51:48;7.72;;;3.60;;
32327;SDS011;18806;51.558;5.100;2022-07-29T06:54:15;6.57;;;3.30;;
32327;SDS011;18806;51.558;5.100;2022-07-29T06:56:43;7.13;;;3.70;;
32327;SDS011;18806;51.558;5.100;2022-07-29T06:59:13;6.30;;;3.20;;
32327;SDS011;18806;51.558;5.100;2022-07-29T07:01:41;6.80;;;3.17;;
32327;SDS011;18806;51.558;5.100;2022-07-29T07:04:11;5.85;;;2.75;;
32327;SDS011;18806;51.558;5.100;2022-07-29T07:06:38;4.70;;;3.10;;
32327;SDS011;18806;51.558;5.100;2022-07-29T07:09:05;6.77;;;3.40;;
32327;SDS011;18806;51.558;5.100;2022-07-29T07:11:33;6.23;;;3.10;;
32327;SDS011;18806;51.558;5.100;2022-07-29T07:14:00;7.05;;;3.53;;
32327;SDS011;18806;51.558;5.100;2022-07-29T07:16:39;6.55;;;3.58;;
32327;SDS011;18806;51.558;5.100;2022-07-29T07:19:08;5.80;;;3.67;;
32327;SDS011;18806;51.558;5.100;2022-07-29T07:21:40;5.25;;;3.17;;
32327;SDS011;18806;51.558;5.100;2022-07-29T07:24:11;7.07;;;3.43;;
32327;SDS011;18806;51.558;5.100;2022-07-29T07:26:42;9.10;;;3.35;;
32327;SDS011;18806;51.558;5.100;2022-07-29T07:29:09;7.65;;;3.33;;
32327;SDS011;18806;51.558;5.100;2022-07-29T07:31:39;6.90;;;3.33;;
32327;SDS011;18806;51.558;5.100;2022-07-29T07:34:09;7.57;;;3.67;;
32327;SDS011;18806;51.558;5.100;2022-07-29T07:36:38;7.78;;;3.53;;
32327;SDS011;18806;51.558;5.100;2022-07-29T07:39:06;10.35;;;3.78;;
32327;SDS011;18806;51.558;5.100;2022-07-29T07:41:33;7.30;;;3.10;;
32327;SDS011;18806;51.558;5.100;2022-07-29T07:44:00;6.75;;;3.28;;
32327;SDS011;18806;51.558;5.100;2022-07-29T07:46:27;7.35;;;3.03;;
32327;SDS011;18806;51.558;5.100;2022-07-29T07:49:03;6.70;;;3.00;;
32327;SDS011;18806;51.558;5.100;2022-07-29T07:51:33;6.00;;;3.03;;
32327;SDS011;18806;51.558;5.100;2022-07-29T07:54:04;6.35;;;3.20;;
32327;SDS011;18806;51.558;5.100;2022-07-29T07:56:32;7.45;;;3.17;;
32327;SDS011;18806;51.558;5.100;2022-07-29T07:59:00;7.97;;;3.50;;
32327;SDS011;18806;51.558;5.100;2022-07-29T08:01:27;7.22;;;3.25;;
32327;SDS011;18806;51.558;5.100;2022-07-29T08:04:13;6.97;;;3.20;;
32327;SDS011;18806;51.558;5.100;2022-07-29T08:06:40;10.00;;;3.60;;
32327;SDS011;18806;51.558;5.100;2022-07-29T08:09:08;8.20;;;3.30;;
32327;SDS011;18806;51.558;5.100;2022-07-29T08:11:55;7.13;;;3.30;;
32327;SDS011;18806;51.558;5.100;2022-07-29T08:14:25;6.10;;;3.17;;
32327;SDS011;18806;51.558;5.100;2022-07-29T08:16:52;7.65;;;3.60;;
32327;SDS011;18806;51.558;5.100;2022-07-29T08:19:20;5.85;;;3.17;;
32327;SDS011;18806;51.558;5.100;2022-07-29T08:21:49;5.68;;;3.20;;
32327;SDS011;18806;51.558;5.100;2022-07-29T08:24:19;6.30;;;3.35;;
32327;SDS011;18806;51.558;5.100;2022-07-29T08:27:12;5.70;;;3.17;;
32327;SDS011;18806;51.558;5.100;2022-07-29T08:30:00;7.53;;;3.28;;
32327;SDS011;18806;51.558;5.100;2022-07-29T08:32:27;7.43;;;3.33;;
32327;SDS011;18806;51.558;5.100;2022-07-29T08:35:14;5.72;;;3.15;;
32327;SDS011;18806;51.558;5.100;2022-07-29T08:37:41;8.18;;;3.30;;
32327;SDS011;18806;51.558;5.100;2022-07-29T08:40:08;7.38;;;3.45;;
32327;SDS011;18806;51.558;5.100;2022-07-29T08:42:36;8.20;;;3.23;;
32327;SDS011;18806;51.558;5.100;2022-07-29T08:45:04;5.90;;;3.20;;
32327;SDS011;18806;51.558;5.100;2022-07-29T08:47:33;6.88;;;3.20;;
32327;SDS011;18806;51.558;5.100;2022-07-29T08:50:05;6.03;;;2.80;;
32327;SDS011;18806;51.558;5.100;2022-07-29T08:52:33;7.22;;;3.25;;
32327;SDS011;18806;51.558;5.100;2022-07-29T08:55:02;7.00;;;3.10;;
32327;SDS011;18806;51.558;5.100;2022-07-29T08:57:31;5.95;;;2.65;;
32327;SDS011;18806;51.558;5.100;2022-07-29T09:00:02;6.03;;;2.50;;
32327;SDS011;18806;51.558;5.100;2022-07-29T09:02:40;5.18;;;2.50;;
32327;SDS011;18806;51.558;5.100;2022-07-29T09:05:11;5.95;;;2.60;;
32327;SDS011;18806;51.558;5.100;2022-07-29T09:07:41;6.85;;;2.70;;
32327;SDS011;18806;51.558;5.100;2022-07-29T09:10:10;8.07;;;2.93;;
32327;SDS011;18806;51.558;5.100;2022-07-29T09:12:37;6.70;;;2.55;;
32327;SDS011;18806;51.558;5.100;2022-07-29T09:15:07;6.72;;;2.40;;
32327;SDS011;18806;51.558;5.100;2022-07-29T09:17:44;5.00;;;2.53;;
32327;SDS011;18806;51.558;5.100;2022-07-29T09:20:19;6.38;;;2.25;;
32327;SDS011;18806;51.558;5.100;2022-07-29T09:22:48;5.80;;;2.53;;
32327;SDS011;18806;51.558;5.100;2022-07-29T09:25:32;5.90;;;2.28;;
32327;SDS011;18806;51.558;5.100;2022-07-29T09:28:10;5.68;;;2.50;;
32327;SDS011;18806;51.558;5.100;2022-07-29T09:30:50;4.22;;;2.03;;
32327;SDS011;18806;51.558;5.100;2022-07-29T09:33:21;5.38;;;1.95;;
32327;SDS011;18806;51.558;5.100;2022-07-29T09:38:45;6.88;;;2.40;;
32327;SDS011;18806;51.558;5.100;2022-07-29T09:41:23;6.13;;;2.63;;
32327;SDS011;18806;51.558;5.100;2022-07-29T09:43:55;7.10;;;2.50;;
32327;SDS011;18806;51.558;5.100;2022-07-29T09:46:26;6.03;;;2.57;;
32327;SDS011;18806;51.558;5.100;2022-07-29T09:49:06;5.93;;;2.40;;
32327;SDS011;18806;51.558;5.100;2022-07-29T09:51:34;6.45;;;2.55;;
32327;SDS011;18806;51.558;5.100;2022-07-29T09:56:54;5.18;;;2.47;;
32327;SDS011;18806;51.558;5.100;2022-07-29T09:59:22;6.88;;;2.22;;
32327;SDS011;18806;51.558;5.100;2022-07-29T10:01:52;6.22;;;2.70;;
32327;SDS011;18806;51.558;5.100;2022-07-29T10:04:20;5.45;;;2.20;;
32327;SDS011;18806;51.558;5.100;2022-07-29T10:09:31;7.40;;;2.20;;
32327;SDS011;18806;51.558;5.100;2022-07-29T10:12:12;5.60;;;2.75;;
32327;SDS011;18806;51.558;5.100;2022-07-29T10:14:40;7.25;;;2.38;;
32327;SDS011;18806;51.558;5.100;2022-07-29T10:17:08;6.67;;;2.30;;
32327;SDS011;18806;51.558;5.100;2022-07-29T10:19:36;6.70;;;2.28;;
32327;SDS011;18806;51.558;5.100;2022-07-29T10:22:09;6.72;;;2.50;;
32327;SDS011;18806;51.558;5.100;2022-07-29T10:24:37;7.18;;;2.60;;
32327;SDS011;18806;51.558;5.100;2022-07-29T10:27:06;5.17;;;2.43;;
32327;SDS011;18806;51.558;5.100;2022-07-29T10:29:34;4.35;;;2.00;;
32327;SDS011;18806;51.558;5.100;2022-07-29T10:43:19;6.70;;;2.23;;
32327;SDS011;18806;51.558;5.100;2022-07-29T10:45:54;5.63;;;2.63;;
32327;SDS011;18806;51.558;5.100;2022-07-29T10:48:22;5.57;;;2.67;;
32327;SDS011;18806;51.558;5.100;2022-07-29T10:51:00;6.53;;;2.37;;
32327;SDS011;18806;51.558;5.100;2022-07-29T10:53:48;6.03;;;2.20;;
32327;SDS011;18806;51.558;5.100;2022-07-29T10:56:26;5.70;;;2.20;;
32327;SDS011;18806;51.558;5.100;2022-07-29T11:01:42;4.88;;;2.00;;
32327;SDS011;18806;51.558;5.100;2022-07-29T11:05:03;4.90;;;2.08;;
32327;SDS011;18806;51.558;5.100;2022-07-29T11:09:34;6.15;;;2.10;;
32327;SDS011;18806;51.558;5.100;2022-07-29T11:12:03;6.93;;;2.65;;
32327;SDS011;18806;51.558;5.100;2022-07-29T11:17:16;7.15;;;2.45;;
32327;SDS011;18806;51.558;5.100;2022-07-29T11:19:46;6.80;;;2.10;;
32327;SDS011;18806;51.558;5.100;2022-07-29T11:22:32;7.32;;;1.85;;
32327;SDS011;18806;51.558;5.100;2022-07-29T11:25:13;3.63;;;1.80;;
32327;SDS011;18806;51.558;5.100;2022-07-29T11:27:42;4.63;;;1.80;;
32327;SDS011;18806;51.558;5.100;2022-07-29T11:30:11;6.57;;;2.20;;
32327;SDS011;18806;51.558;5.100;2022-07-29T11:32:41;6.53;;;2.22;;
32327;SDS011;18806;51.558;5.100;2022-07-29T11:35:26;6.35;;;2.00;;
32327;SDS011;18806;51.558;5.100;2022-07-29T11:43:49;6.50;;;2.40;;
32327;SDS011;18806;51.558;5.100;2022-07-29T11:49:13;6.28;;;1.90;;
32327;SDS011;18806;51.558;5.100;2022-07-29T11:51:51;5.13;;;1.70;;
32327;SDS011;18806;51.558;5.100;2022-07-29T11:54:22;4.13;;;1.55;;
32327;SDS011;18806;51.558;5.100;2022-07-29T11:56:52;6.05;;;2.03;;
32327;SDS011;18806;51.558;5.100;2022-07-29T11:59:24;5.68;;;1.67;;
32327;SDS011;18806;51.558;5.100;2022-07-29T12:01:59;6.75;;;1.45;;
32327;SDS011;18806;51.558;5.100;2022-07-29T12:07:28;5.60;;;1.60;;
32327;SDS011;18806;51.558;5.100;2022-07-29T12:10:01;4.70;;;1.90;;
32327;SDS011;18806;51.558;5.100;2022-07-29T12:12:28;4.85;;;1.60;;
32327;SDS011;18806;51.558;5.100;2022-07-29T12:15:09;6.40;;;2.00;;
32327;SDS011;18806;51.558;5.100;2022-07-29T12:17:38;5.53;;;1.63;;
32327;SDS011;18806;51.558;5.100;2022-07-29T12:20:05;6.95;;;1.70;;
32327;SDS011;18806;51.558;5.100;2022-07-29T12:22:34;5.13;;;1.70;;
32327;SDS011;18806;51.558;5.100;2022-07-29T12:25:04;5.57;;;1.65;;
32327;SDS011;18806;51.558;5.100;2022-07-29T12:27:58;5.65;;;1.80;;
32327;SDS011;18806;51.558;5.100;2022-07-29T12:30:40;4.53;;;1.50;;
32327;SDS011;18806;51.558;5.100;2022-07-29T12:35:39;4.22;;;1.63;;
32327;SDS011;18806;51.558;5.100;2022-07-29T12:38:07;6.30;;;1.83;;
32327;SDS011;18806;51.558;5.100;2022-07-29T12:40:37;5.63;;;1.60;;
32327;SDS011;18806;51.558;5.100;2022-07-29T12:43:05;5.32;;;1.70;;
32327;SDS011;18806;51.558;5.100;2022-07-29T12:45:39;5.33;;;1.93;;
32327;SDS011;18806;51.558;5.100;2022-07-29T12:48:11;6.82;;;1.88;;
32327;SDS011;18806;51.558;5.100;2022-07-29T12:50:54;5.82;;;1.77;;
32327;SDS011;18806;51.558;5.100;2022-07-29T12:53:23;5.80;;;1.67;;
32327;SDS011;18806;51.558;5.100;2022-07-29T12:55:51;4.63;;;1.55;;
32327;SDS011;18806;51.558;5.100;2022-07-29T12:58:29;6.88;;;1.70;;
32327;SDS011;18806;51.558;5.100;2022-07-29T13:01:01;8.27;;;1.70;;
32327;SDS011;18806;51.558;5.100;2022-07-29T13:03:43;5.30;;;1.50;;
32327;SDS011;18806;51.558;5.100;2022-07-29T13:08:59;5.95;;;1.60;;
32327;SDS011;18806;51.558;5.100;2022-07-29T13:11:31;8.07;;;1.90;;
32327;SDS011;18806;51.558;5.100;2022-07-29T13:13:59;7.35;;;1.85;;
32327;SDS011;18806;51.558;5.100;2022-07-29T13:16:31;5.20;;;1.85;;
32327;SDS011;18806;51.558;5.100;2022-07-29T13:19:07;7.60;;;1.90;;
32327;SDS011;18806;51.558;5.100;2022-07-29T13:21:35;8.65;;;2.00;;
32327;SDS011;18806;51.558;5.100;2022-07-29T13:24:03;6.10;;;1.97;;
32327;SDS011;18806;51.558;5.100;2022-07-29T13:26:30;7.90;;;2.00;;
32327;SDS011;18806;51.558;5.100;2022-07-29T13:28:57;7.25;;;2.22;;
32327;SDS011;18806;51.558;5.100;2022-07-29T13:31:24;5.63;;;1.85;;
32327;SDS011;18806;51.558;5.100;2022-07-29T13:33:52;5.03;;;1.90;;
32327;SDS011;18806;51.558;5.100;2022-07-29T13:36:19;5.82;;;1.70;;
32327;SDS011;18806;51.558;5.100;2022-07-29T13:38:46;3.83;;;1.70;;
32327;SDS011;18806;51.558;5.100;2022-07-29T13:41:14;7.00;;;2.40;;
32327;SDS011;18806;51.558;5.100;2022-07-29T13:43:42;6.38;;;2.10;;
32327;SDS011;18806;51.558;5.100;2022-07-29T13:46:13;5.03;;;1.90;;
32327;SDS011;18806;51.558;5.100;2022-07-29T13:48:40;5.15;;;1.77;;
32327;SDS011;18806;51.558;5.100;2022-07-29T13:51:07;7.53;;;2.10;;
32327;SDS011;18806;51.558;5.100;2022-07-29T13:53:34;6.73;;;2.10;;
32327;SDS011;18806;51.558;5.100;2022-07-29T13:56:04;7.95;;;2.47;;
32327;SDS011;18806;51.558;5.100;2022-07-29T13:58:35;5.15;;;1.88;;
32327;SDS011;18806;51.558;5.100;2022-07-29T14:01:03;4.93;;;1.95;;
32327;SDS011;18806;51.558;5.100;2022-07-29T14:03:32;5.05;;;1.90;;
32327;SDS011;18806;51.558;5.100;2022-07-29T14:06:00;7.97;;;2.17;;
32327;SDS011;18806;51.558;5.100;2022-07-29T14:08:29;4.65;;;1.92;;
32327;SDS011;18806;51.558;5.100;2022-07-29T14:10:57;4.68;;;1.88;;
32327;SDS011;18806;51.558;5.100;2022-07-29T14:13:24;6.03;;;1.90;;
32327;SDS011;18806;51.558;5.100;2022-07-29T14:15:51;4.67;;;1.90;;
32327;SDS011;18806;51.558;5.100;2022-07-29T14:18:18;4.68;;;1.65;;
32327;SDS011;18806;51.558;5.100;2022-07-29T14:20:45;6.38;;;1.80;;
32327;SDS011;18806;51.558;5.100;2022-07-29T14:23:13;4.25;;;1.70;;
32327;SDS011;18806;51.558;5.100;2022-07-29T14:25:41;5.93;;;2.10;;
32327;SDS011;18806;51.558;5.100;2022-07-29T14:28:10;5.93;;;2.00;;
32327;SDS011;18806;51.558;5.100;2022-07-29T14:30:39;4.55;;;1.60;;
32327;SDS011;18806;51.558;5.100;2022-07-29T14:33:07;6.05;;;2.00;;
32327;SDS011;18806;51.558;5.100;2022-07-29T14:35:34;7.28;;;2.13;;
32327;SDS011;18806;51.558;5.100;2022-07-29T14:38:01;5.78;;;2.13;;
32327;SDS011;18806;51.558;5.100;2022-07-29T14:40:30;7.88;;;2.40;;
32327;SDS011;18806;51.558;5.100;2022-07-29T14:42:57;7.18;;;2.10;;
32327;SDS011;18806;51.558;5.100;2022-07-29T14:45:24;7.23;;;2.10;;
32327;SDS011;18806;51.558;5.100;2022-07-29T14:47:51;6.35;;;2.00;;
32327;SDS011;18806;51.558;5.100;2022-07-29T14:50:22;6.82;;;2.08;;
32327;SDS011;18806;51.558;5.100;2022-07-29T14:52:57;4.45;;;1.80;;
32327;SDS011;18806;51.558;5.100;2022-07-29T14:55:28;6.10;;;2.10;;
32327;SDS011;18806;51.558;5.100;2022-07-29T14:57:55;6.38;;;2.15;;
32327;SDS011;18806;51.558;5.100;2022-07-29T15:00:35;8.20;;;2.43;;
32327;SDS011;18806;51.558;5.100;2022-07-29T15:03:03;5.30;;;1.98;;
32327;SDS011;18806;51.558;5.100;2022-07-29T15:05:30;7.68;;;2.33;;
32327;SDS011;18806;51.558;5.100;2022-07-29T15:07:58;7.55;;;2.28;;
32327;SDS011;18806;51.558;5.100;2022-07-29T15:10:25;6.43;;;2.30;;
32327;SDS011;18806;51.558;5.100;2022-07-29T15:12:55;8.10;;;2.45;;
32327;SDS011;18806;51.558;5.100;2022-07-29T15:15:23;8.93;;;2.60;;
32327;SDS011;18806;51.558;5.100;2022-07-29T15:17:53;7.93;;;1.90;;
32327;SDS011;18806;51.558;5.100;2022-07-29T15:20:20;6.43;;;2.75;;
32327;SDS011;18806;51.558;5.100;2022-07-29T15:22:47;7.25;;;2.40;;
32327;SDS011;18806;51.558;5.100;2022-07-29T15:25:14;6.30;;;2.20;;
32327;SDS011;18806;51.558;5.100;2022-07-29T15:27:41;8.63;;;2.80;;
32327;SDS011;18806;51.558;5.100;2022-07-29T15:30:17;6.68;;;2.28;;
32327;SDS011;18806;51.558;5.100;2022-07-29T15:33:00;8.25;;;2.60;;
32327;SDS011;18806;51.558;5.100;2022-07-29T15:35:27;6.40;;;2.78;;
32327;SDS011;18806;51.558;5.100;2022-07-29T15:37:57;8.20;;;2.50;;
32327;SDS011;18806;51.558;5.100;2022-07-29T15:40:29;6.82;;;2.30;;
32327;SDS011;18806;51.558;5.100;2022-07-29T15:42:56;7.32;;;3.03;;
32327;SDS011;18806;51.558;5.100;2022-07-29T15:45:26;8.40;;;3.27;;
32327;SDS011;18806;51.558;5.100;2022-07-29T15:48:01;8.30;;;3.20;;
32327;SDS011;18806;51.558;5.100;2022-07-29T15:50:28;9.20;;;2.83;;
32327;SDS011;18806;51.558;5.100;2022-07-29T15:52:55;6.57;;;3.10;;
32327;SDS011;18806;51.558;5.100;2022-07-29T15:55:22;11.65;;;3.60;;
32327;SDS011;18806;51.558;5.100;2022-07-29T15:57:50;6.67;;;2.70;;
32327;SDS011;18806;51.558;5.100;2022-07-29T16:00:20;8.43;;;2.95;;
32327;SDS011;18806;51.558;5.100;2022-07-29T16:02:48;8.45;;;2.80;;
32327;SDS011;18806;51.558;5.100;2022-07-29T16:05:15;9.13;;;3.30;;
32327;SDS011;18806;51.558;5.100;2022-07-29T16:07:43;8.97;;;2.80;;
32327;SDS011;18806;51.558;5.100;2022-07-29T16:10:10;8.15;;;3.40;;
32327;SDS011;18806;51.558;5.100;2022-07-29T16:12:37;6.40;;;2.80;;
32327;SDS011;18806;51.558;5.100;2022-07-29T16:15:05;8.65;;;2.90;;
32327;SDS011;18806;51.558;5.100;2022-07-29T16:17:37;6.07;;;2.80;;
32327;SDS011;18806;51.558;5.100;2022-07-29T16:20:08;7.63;;;3.33;;
32327;SDS011;18806;51.558;5.100;2022-07-29T16:22:38;7.77;;;3.20;;
32327;SDS011;18806;51.558;5.100;2022-07-29T16:25:07;8.07;;;3.05;;
32327;SDS011;18806;51.558;5.100;2022-07-29T16:27:37;6.93;;;3.00;;
32327;SDS011;18806;51.558;5.100;2022-07-29T16:30:05;7.15;;;2.90;;
32327;SDS011;18806;51.558;5.100;2022-07-29T16:32:34;4.67;;;2.80;;
32327;SDS011;18806;51.558;5.100;2022-07-29T16:35:02;5.90;;;2.70;;
32327;SDS011;18806;51.558;5.100;2022-07-29T16:37:30;8.18;;;2.70;;
32327;SDS011;18806;51.558;5.100;2022-07-29T16:40:01;6.00;;;2.45;;
32327;SDS011;18806;51.558;5.100;2022-07-29T16:42:33;5.10;;;2.58;;
32327;SDS011;18806;51.558;5.100;2022-07-29T16:45:20;6.15;;;2.80;;
32327;SDS011;18806;51.558;5.100;2022-07-29T16:47:47;7.15;;;2.85;;
32327;SDS011;18806;51.558;5.100;2022-07-29T16:50:15;6.55;;;2.90;;
32327;SDS011;18806;51.558;5.100;2022-07-29T16:52:42;6.22;;;2.80;;
32327;SDS011;18806;51.558;5.100;2022-07-29T16:55:15;6.07;;;2.85;;
32327;SDS011;18806;51.558;5.100;2022-07-29T16:57:42;10.50;;;2.83;;
32327;SDS011;18806;51.558;5.100;2022-07-29T17:00:10;7.25;;;2.65;;
32327;SDS011;18806;51.558;5.100;2022-07-29T17:02:39;5.68;;;2.80;;
32327;SDS011;18806;51.558;5.100;2022-07-29T17:05:11;7.70;;;2.90;;
32327;SDS011;18806;51.558;5.100;2022-07-29T17:07:40;6.93;;;2.80;;
32327;SDS011;18806;51.558;5.100;2022-07-29T17:10:11;11.60;;;2.80;;
32327;SDS011;18806;51.558;5.100;2022-07-29T17:12:38;17.33;;;3.63;;
32327;SDS011;18806;51.558;5.100;2022-07-29T17:15:07;6.63;;;2.67;;
32327;SDS011;18806;51.558;5.100;2022-07-29T17:17:37;6.60;;;2.80;;
32327;SDS011;18806;51.558;5.100;2022-07-29T17:20:21;6.18;;;2.70;;
32327;SDS011;18806;51.558;5.100;2022-07-29T17:22:49;7.90;;;2.80;;
32327;SDS011;18806;51.558;5.100;2022-07-29T17:25:16;6.78;;;2.50;;
32327;SDS011;18806;51.558;5.100;2022-07-29T17:27:46;8.75;;;2.58;;
32327;SDS011;18806;51.558;5.100;2022-07-29T17:30:14;5.20;;;2.63;;
32327;SDS011;18806;51.558;5.100;2022-07-29T17:32:41;6.88;;;2.63;;
32327;SDS011;18806;51.558;5.100;2022-07-29T17:35:09;8.93;;;2.60;;
32327;SDS011;18806;51.558;5.100;2022-07-29T17:37:58;6.78;;;2.40;;
32327;SDS011;18806;51.558;5.100;2022-07-29T17:40:25;5.18;;;2.63;;
32327;SDS011;18806;51.558;5.100;2022-07-29T17:42:52;5.90;;;2.50;;
32327;SDS011;18806;51.558;5.100;2022-07-29T17:45:19;5.47;;;2.40;;
32327;SDS011;18806;51.558;5.100;2022-07-29T17:47:46;7.55;;;2.50;;
32327;SDS011;18806;51.558;5.100;2022-07-29T17:50:14;8.80;;;2.78;;
32327;SDS011;18806;51.558;5.100;2022-07-29T17:52:41;8.47;;;2.53;;
32327;SDS011;18806;51.558;5.100;2022-07-29T17:55:08;9.27;;;2.70;;
32327;SDS011;18806;51.558;5.100;2022-07-29T17:57:37;9.05;;;2.60;;
32327;SDS011;18806;51.558;5.100;2022-07-29T18:00:07;5.40;;;2.45;;
32327;SDS011;18806;51.558;5.100;2022-07-29T18:02:36;10.57;;;2.92;;
32327;SDS011;18806;51.558;5.100;2022-07-29T18:05:06;7.32;;;2.50;;
32327;SDS011;18806;51.558;5.100;2022-07-29T18:07:33;8.90;;;2.85;;
32327;SDS011;18806;51.558;5.100;2022-07-29T18:10:00;7.17;;;2.60;;
32327;SDS011;18806;51.558;5.100;2022-07-29T18:12:27;9.73;;;2.80;;
32327;SDS011;18806;51.558;5.100;2022-07-29T18:14:56;7.93;;;2.40;;
32327;SDS011;18806;51.558;5.100;2022-07-29T18:17:25;8.13;;;2.45;;
32327;SDS011;18806;51.558;5.100;2022-07-29T18:20:12;7.13;;;2.30;;
32327;SDS011;18806;51.558;5.100;2022-07-29T18:23:04;5.03;;;2.00;;
32327;SDS011;18806;51.558;5.100;2022-07-29T18:25:33;4.78;;;1.90;;
32327;SDS011;18806;51.558;5.100;2022-07-29T18:28:02;7.85;;;2.20;;
32327;SDS011;18806;51.558;5.100;2022-07-29T18:30:30;7.28;;;2.08;;
32327;SDS011;18806;51.558;5.100;2022-07-29T18:33:03;6.53;;;2.10;;
32327;SDS011;18806;51.558;5.100;2022-07-29T18:35:46;7.47;;;2.20;;
32327;SDS011;18806;51.558;5.100;2022-07-29T18:38:15;4.97;;;2.10;;
32327;SDS011;18806;51.558;5.100;2022-07-29T18:40:42;6.32;;;2.00;;
32327;SDS011;18806;51.558;5.100;2022-07-29T18:43:11;8.43;;;2.30;;
32327;SDS011;18806;51.558;5.100;2022-07-29T18:45:39;5.18;;;1.90;;
32327;SDS011;18806;51.558;5.100;2022-07-29T18:48:08;6.18;;;2.20;;
32327;SDS011;18806;51.558;5.100;2022-07-29T18:50:39;5.95;;;2.03;;
32327;SDS011;18806;51.558;5.100;2022-07-29T18:53:06;5.57;;;1.90;;
32327;SDS011;18806;51.558;5.100;2022-07-29T18:55:33;7.18;;;2.35;;
32327;SDS011;18806;51.558;5.100;2022-07-29T18:58:01;5.40;;;2.22;;